Time;durP1;ratioP1;P1;durP2;ratioP2;P2;SDS_P1;SDS_P2;PMS_P1;PMS_P2;Temp;Humidity;BMP_temperature;BMP_pressure;BME280_temperature;BME280_humidity;BME280_pressure;Samples;Min_cycle;Max_cycle;Signal;HPM_P1;HPM_P2
2022/12/27 00:00:53;;;;;;;8.13;2.87;;;5.60;99.90;;;;;;5093758;28;20179;-88
2022/12/27 00:03:19;;;;;;;6.33;2.40;;;5.60;99.90;;;;;;5086916;28;20187;-88
2022/12/27 00:05:47;;;;;;;5.93;2.63;;;5.70;99.90;;;;;;5085587;28;20218;-88
2022/12/27 00:08:13;;;;;;;9.77;3.13;;;5.80;99.90;;;;;;5091415;28;20194;-89
2022/12/27 00:10:49;;;;;;;8.53;2.93;;;5.60;99.90;;;;;;5085645;28;20180;-88
2022/12/27 00:13:18;;;;;;;13.50;3.53;;;5.70;99.90;;;;;;5080234;28;20208;-88
2022/12/27 00:15:47;;;;;;;7.70;2.87;;;5.60;99.90;;;;;;5077973;28;20186;-88
2022/12/27 00:18:16;;;;;;;6.40;3.10;;;5.60;99.90;;;;;;5077697;28;20184;-88
2022/12/27 00:20:41;;;;;;;6.97;2.67;;;5.70;99.90;;;;;;5077233;28;20226;-87
2022/12/27 00:23:07;;;;;;;8.53;2.97;;;5.70;99.90;;;;;;5077330;28;20175;-87
2022/12/27 00:25:33;;;;;;;5.83;2.70;;;5.70;99.60;;;;;;5094271;28;20183;-88
2022/12/27 00:27:59;;;;;;;9.47;2.60;;;5.60;99.90;;;;;;5080317;28;20179;-88
2022/12/27 00:30:29;;;;;;;6.37;2.73;;;5.70;99.80;;;;;;5060716;28;20180;-88
2022/12/27 00:32:55;;;;;;;5.37;2.47;;;5.60;99.80;;;;;;5085987;28;20180;-88
2022/12/27 00:35:20;;;;;;;7.27;2.93;;;5.60;99.90;;;;;;5080002;28;20635;-88
2022/12/27 00:37:46;;;;;;;5.10;2.80;;;5.50;99.90;;;;;;5082334;28;20186;-88
2022/12/27 00:40:12;;;;;;;11.30;3.63;;;5.40;99.90;;;;;;5085094;28;20738;-88
2022/12/27 00:42:38;;;;;;;7.50;2.60;;;5.50;99.90;;;;;;5085697;28;20177;-88
2022/12/27 00:45:16;;;;;;;8.63;2.87;;;5.50;99.90;;;;;;5095740;28;20206;-88
2022/12/27 00:51:40;;;;;;;6.47;2.47;;;5.50;99.90;;;;;;5103926;28;20571;-90
2022/12/27 00:54:08;;;;;;;5.20;2.20;;;5.50;99.90;;;;;;5102304;28;20180;-89
2022/12/27 00:56:33;;;;;;;10.53;2.67;;;5.60;99.90;;;;;;5076736;28;20250;-88
2022/12/27 00:59:03;;;;;;;6.83;2.53;;;5.60;99.90;;;;;;5076554;28;20215;-88
2022/12/27 01:01:34;;;;;;;5.20;2.60;;;5.60;99.90;;;;;;5076429;28;20180;-88
2022/12/27 01:04:01;;;;;;;7.13;2.27;;;5.70;99.90;;;;;;5076281;28;20249;-88
2022/12/27 01:06:28;;;;;;;6.47;2.60;;;5.70;98.80;;;;;;5076485;28;20188;-88
2022/12/27 01:09:01;;;;;;;5.70;2.50;;;5.60;98.40;;;;;;5076249;28;20187;-87
2022/12/27 01:11:41;;;;;;;11.10;2.93;;;5.50;98.60;;;;;;5075994;28;20236;-88
2022/12/27 01:14:18;;;;;;;8.73;2.50;;;5.60;99.80;;;;;;5076012;28;20643;-88
2022/12/27 01:16:47;;;;;;;7.07;2.87;;;5.50;99.90;;;;;;5094273;28;20205;-88
2022/12/27 01:19:14;;;;;;;9.37;3.37;;;5.50;99.90;;;;;;5076255;28;20211;-86
2022/12/27 01:21:40;;;;;;;5.53;2.70;;;5.60;99.90;;;;;;5083182;28;20216;-88
2022/12/27 01:24:06;;;;;;;6.53;2.63;;;5.70;99.90;;;;;;5092711;28;20180;-88
2022/12/27 01:26:35;;;;;;;7.87;3.13;;;5.60;99.90;;;;;;5083517;28;20183;-88
2022/12/27 01:29:02;;;;;;;5.87;2.37;;;5.60;99.90;;;;;;5077358;28;20221;-88
2022/12/27 01:31:31;;;;;;;6.53;2.43;;;5.50;99.90;;;;;;5080039;28;20222;-88
2022/12/27 01:34:00;;;;;;;7.90;2.63;;;5.50;99.90;;;;;;5093924;28;20187;-88
2022/12/27 01:36:35;;;;;;;10.53;2.30;;;5.50;99.90;;;;;;5098165;28;20235;-88
2022/12/27 01:39:08;;;;;;;8.43;2.63;;;5.50;99.90;;;;;;5076135;28;20206;-88
2022/12/27 01:44:50;;;;;;;3.43;1.97;;;5.50;99.90;;;;;;5094218;28;20616;-88
2022/12/27 01:48:15;;;;;;;;;;;;;;;;;;;;;
2022/12/27 01:51:05;;;;;;;5.50;2.40;;;5.50;99.90;;;;;;5093834;28;20239;-88
2022/12/27 01:54:09;;;;;;;13.77;2.93;;;5.40;99.90;;;;;;5083851;28;20262;-87
2022/12/27 01:56:38;;;;;;;6.03;2.40;;;5.40;99.90;;;;;;5062385;28;20268;-88
2022/12/27 01:59:07;;;;;;;13.43;3.53;;;5.40;99.90;;;;;;5075609;28;20246;-88
2022/12/27 02:01:45;;;;;;;5.83;2.97;;;5.40;99.90;;;;;;5075716;28;20172;-88
2022/12/27 02:04:17;;;;;;;9.43;2.73;;;5.40;99.90;;;;;;5074960;28;20202;-88
2022/12/27 02:07:01;;;;;;;7.20;2.70;;;5.40;99.90;;;;;;5076521;28;20175;-89
2022/12/27 02:09:45;;;;;;;6.40;2.43;;;5.40;99.90;;;;;;5076279;28;20180;-88
2022/12/27 02:12:56;;;;;;;8.33;2.50;;;5.40;99.90;;;;;;5075534;28;20639;-87
2022/12/27 02:16:09;;;;;;;;;;;;;;;;;;;;;
2022/12/27 02:28:55;;;;;;;10.60;2.67;;;5.40;99.90;;;;;;5098873;28;20205;-89
2022/12/27 02:35:12;;;;;;;8.63;2.80;;;5.40;99.90;;;;;;5049171;28;20189;-88
2022/12/27 02:37:51;;;;;;;5.70;2.30;;;5.30;99.90;;;;;;5085584;28;20177;-87
2022/12/27 03:34:57;;;;;;;9.63;3.13;;;5.30;99.90;;;;;;5014335;28;20269;-88
2022/12/27 03:57:16;;;;;;;9.53;3.17;;;5.10;99.90;;;;;;5015185;28;20221;-87
2022/12/27 04:57:36;;;;;;;5.97;2.87;;;5.20;99.90;;;;;;5108630;28;20257;-87
2022/12/27 05:03:08;;;;;;;9.70;3.67;;;5.20;99.90;;;;;;5081454;28;20179;-87
2022/12/27 05:05:39;;;;;;;5.40;2.90;;;5.20;99.90;;;;;;5095063;28;20183;-87
2022/12/27 05:14:10;;;;;;;8.07;3.30;;;5.20;99.90;;;;;;5094526;28;20255;-89
2022/12/27 05:16:50;;;;;;;9.17;3.03;;;5.30;99.90;;;;;;5092087;28;20710;-89
2022/12/27 05:19:16;;;;;;;8.07;3.43;;;5.30;99.90;;;;;;5075848;28;20195;-88
2022/12/27 05:27:22;;;;;;;7.03;2.87;;;5.30;99.90;;;;;;5095442;28;20190;-88
2022/12/27 05:29:48;;;;;;;7.80;3.20;;;5.30;99.90;;;;;;5078583;28;20639;-87
2022/12/27 05:32:19;;;;;;;7.20;3.10;;;5.30;99.90;;;;;;5095646;28;20196;-88
2022/12/27 05:34:53;;;;;;;10.97;3.30;;;5.20;99.90;;;;;;5081524;28;20180;-86
2022/12/27 05:37:25;;;;;;;8.77;3.40;;;5.20;99.90;;;;;;5088526;28;20232;-87
2022/12/27 05:40:06;;;;;;;6.40;3.20;;;5.20;99.90;;;;;;5075994;28;20207;-88
2022/12/27 05:42:41;;;;;;;6.33;2.90;;;5.20;99.90;;;;;;5076118;28;20175;-89
2022/12/27 05:45:43;;;;;;;7.37;3.23;;;5.20;99.90;;;;;;5076016;28;20186;-89
2022/12/27 05:48:26;;;;;;;7.50;3.23;;;5.30;99.90;;;;;;5075431;28;20190;-88
2022/12/27 05:50:52;;;;;;;8.43;3.73;;;5.30;99.90;;;;;;5085535;28;20210;-87
2022/12/27 05:53:18;;;;;;;6.53;2.90;;;5.30;99.90;;;;;;5078000;28;20187;-88
2022/12/27 05:58:54;;;;;;;5.77;3.03;;;5.30;99.90;;;;;;5111958;28;20275;-88
2022/12/27 06:01:20;;;;;;;7.20;3.13;;;5.30;99.90;;;;;;5077625;28;20175;-88
2022/12/27 06:04:06;;;;;;;7.57;3.07;;;5.40;99.90;;;;;;5082115;28;20272;-88
2022/12/27 06:06:38;;;;;;;7.23;3.00;;;5.30;99.90;;;;;;5080793;28;20180;-90
2022/12/27 06:09:22;;;;;;;10.13;3.63;;;5.30;99.90;;;;;;5084002;28;20175;-89
2022/12/27 06:12:16;;;;;;;8.33;3.70;;;5.20;99.90;;;;;;5077766;28;20191;-89
2022/12/27 06:15:10;;;;;;;8.93;3.40;;;5.20;99.90;;;;;;5079668;28;20639;-90
2022/12/27 06:18:05;;;;;;;6.80;3.00;;;5.20;99.90;;;;;;5097826;28;20233;-90
2022/12/27 06:20:31;;;;;;;5.83;2.83;;;5.30;99.90;;;;;;5100372;28;20215;-88
2022/12/27 06:23:01;;;;;;;6.60;2.80;;;5.40;99.90;;;;;;5083067;28;20228;-89
2022/12/27 06:25:27;;;;;;;10.63;3.13;;;5.30;99.90;;;;;;5092461;28;20230;-89
2022/12/27 06:28:04;;;;;;;6.90;3.07;;;5.20;99.90;;;;;;5107192;28;20176;-89
2022/12/27 06:30:54;;;;;;;8.17;3.17;;;5.30;99.90;;;;;;5080461;28;20186;-89
2022/12/27 06:34:13;;;;;;;11.13;3.17;;;5.30;99.90;;;;;;5077408;28;20217;-89
2022/12/27 06:40:15;;;;;;;11.30;3.60;;;5.30;99.90;;;;;;5055256;28;20625;-89
2022/12/27 06:42:41;;;;;;;7.40;3.23;;;5.20;99.90;;;;;;5038579;28;20188;-89
2022/12/27 06:45:16;;;;;;;8.23;3.37;;;5.40;99.90;;;;;;5078176;28;20184;-90
2022/12/27 06:47:50;;;;;;;9.27;3.40;;;5.30;99.90;;;;;;5080043;28;20254;-89
2022/12/27 06:50:26;;;;;;;7.30;3.40;;;5.30;99.90;;;;;;5079434;28;20202;-89
2022/12/27 06:53:00;;;;;;;9.23;3.30;;;5.40;99.90;;;;;;5079291;28;20187;-89
2022/12/27 06:55:26;;;;;;;9.07;3.50;;;5.40;99.90;;;;;;5079866;28;20176;-90
2022/12/27 06:57:51;;;;;;;6.97;2.97;;;5.40;99.90;;;;;;5095259;28;20598;-87
2022/12/27 07:03:31;;;;;;;5.67;3.23;;;5.60;99.90;;;;;;5079649;28;20186;-89
2022/12/27 07:06:07;;;;;;;9.50;3.50;;;5.60;99.90;;;;;;5079026;28;20255;-89
2022/12/27 07:08:44;;;;;;;10.17;3.37;;;5.60;99.90;;;;;;5072153;28;20270;-89
2022/12/27 07:11:17;;;;;;;8.87;4.27;;;5.60;99.90;;;;;;5097169;28;20265;-90
2022/12/27 07:14:28;;;;;;;8.63;2.60;;;5.70;99.90;;;;;;5082918;28;20212;-88
2022/12/27 07:16:51;;;;;;;10.70;3.43;;;5.70;99.90;;;;;;5118693;28;20194;-88
2022/12/27 07:19:17;;;;;;;5.93;3.00;;;5.70;99.90;;;;;;5099744;28;20287;-88
2022/12/27 07:21:43;;;;;;;6.93;2.90;;;5.90;99.90;;;;;;5097708;28;20179;-89
2022/12/27 07:24:17;;;;;;;6.80;3.00;;;5.70;99.90;;;;;;5112150;28;20175;-88
2022/12/27 07:26:43;;;;;;;10.27;3.00;;;5.60;99.90;;;;;;5101070;28;20177;-88
2022/12/27 07:29:25;;;;;;;8.20;3.17;;;5.60;99.90;;;;;;5085339;28;20316;-89
2022/12/27 07:31:51;;;;;;;8.07;3.07;;;5.70;99.90;;;;;;5095669;28;20281;-89
2022/12/27 07:34:24;;;;;;;7.87;3.13;;;5.60;99.90;;;;;;5085798;28;20195;-88
2022/12/27 07:37:00;;;;;;;12.77;3.80;;;5.70;99.90;;;;;;5098585;28;20259;-88
2022/12/27 07:40:02;;;;;;;7.67;2.70;;;5.60;99.90;;;;;;5099086;28;20224;-89
2022/12/27 07:42:34;;;;;;;7.57;2.93;;;5.70;99.90;;;;;;5097165;28;20167;-89
2022/12/27 07:45:11;;;;;;;5.60;2.50;;;5.60;99.90;;;;;;5078464;28;20229;-89
2022/12/27 07:48:12;;;;;;;;;;;;;;;;;;;;;
2022/12/27 07:53:49;;;;;;;9.77;3.23;;;5.60;99.90;;;;;;5116690;28;20206;-89
2022/12/27 07:56:20;;;;;;;6.40;2.77;;;5.70;99.90;;;;;;5090782;28;20214;-89
2022/12/27 07:58:48;;;;;;;7.63;3.30;;;5.80;99.90;;;;;;5093068;28;20172;-89
2022/12/27 08:01:24;;;;;;;9.90;3.17;;;5.80;99.90;;;;;;5096755;28;20257;-90
2022/12/27 08:03:50;;;;;;;8.10;2.83;;;5.80;99.90;;;;;;5078280;28;20229;-89
2022/12/27 08:06:33;;;;;;;7.27;2.90;;;5.80;99.90;;;;;;5078988;28;20222;-90
2022/12/27 08:09:05;;;;;;;8.33;2.60;;;5.80;99.90;;;;;;5078568;28;20190;-89
2022/12/27 08:11:31;;;;;;;7.87;3.00;;;5.80;99.90;;;;;;5097710;28;20642;-89
2022/12/27 08:13:57;;;;;;;9.67;2.70;;;5.90;99.90;;;;;;5078678;28;20184;-89
2022/12/27 08:16:24;;;;;;;9.00;3.13;;;6.00;99.90;;;;;;5097041;28;20184;-89
2022/12/27 08:18:52;;;;;;;8.80;3.40;;;5.90;99.90;;;;;;5080730;28;20184;-87
2022/12/27 08:24:53;;;;;;;;;;;;;;;;;;;;;
2022/12/27 08:27:26;;;;;;;6.93;2.90;;;6.10;99.90;;;;;;5033171;28;20266;-89
2022/12/27 08:29:52;;;;;;;7.07;2.80;;;6.00;99.90;;;;;;5090749;28;20175;-89
2022/12/27 08:32:18;;;;;;;8.97;3.23;;;6.10;99.90;;;;;;5112808;28;20163;-89
2022/12/27 08:34:45;;;;;;;6.67;3.07;;;6.20;99.90;;;;;;5098095;28;20197;-89
2022/12/27 08:37:12;;;;;;;5.50;2.83;;;6.10;99.90;;;;;;5084926;28;20187;-88
2022/12/27 08:39:38;;;;;;;6.83;3.43;;;6.20;99.90;;;;;;5078750;28;20253;-88
2022/12/27 08:42:15;;;;;;;6.10;2.50;;;6.20;99.90;;;;;;5085298;28;20179;-89
2022/12/27 08:44:45;;;;;;;9.90;2.40;;;6.20;99.90;;;;;;5090739;28;20175;-87
2022/12/27 08:47:14;;;;;;;8.47;3.17;;;6.20;99.90;;;;;;5093065;28;20200;-87
2022/12/27 08:49:56;;;;;;;6.87;2.70;;;6.20;99.90;;;;;;5115392;28;20155;-88
2022/12/27 08:52:27;;;;;;;7.30;3.47;;;6.20;99.90;;;;;;5094811;28;20188;-88
2022/12/27 08:54:53;;;;;;;7.77;2.60;;;6.20;99.90;;;;;;5088046;28;20164;-87
2022/12/27 08:57:21;;;;;;;8.37;3.07;;;6.30;99.90;;;;;;5093680;28;20164;-88
2022/12/27 09:05:39;;;;;;;7.97;3.50;;;6.40;99.90;;;;;;5101120;28;20256;-89
2022/12/27 09:08:05;;;;;;;8.10;3.27;;;6.30;99.90;;;;;;5076601;28;20180;-88
2022/12/27 09:10:32;;;;;;;12.37;2.77;;;6.40;99.90;;;;;;5078702;28;20305;-88
2022/12/27 09:12:57;;;;;;;6.87;2.97;;;6.40;99.90;;;;;;5077212;28;20661;-87
2022/12/27 09:15:24;;;;;;;5.93;2.70;;;6.30;99.90;;;;;;5078833;28;20270;-88
2022/12/27 09:17:50;;;;;;;11.03;3.60;;;6.30;99.90;;;;;;5080407;28;20207;-88
2022/12/27 09:20:18;;;;;;;9.97;2.83;;;6.40;99.90;;;;;;5060408;28;20227;-87
2022/12/27 09:22:57;;;;;;;7.83;2.37;;;6.30;99.90;;;;;;5093270;28;20268;-89
2022/12/27 09:28:34;;;;;;;7.07;2.70;;;6.40;99.90;;;;;;5083588;28;20211;-88
2022/12/27 09:31:00;;;;;;;4.63;2.60;;;6.50;99.90;;;;;;5095419;28;20168;-87
2022/12/27 09:33:27;;;;;;;6.90;2.70;;;6.50;99.70;;;;;;5076476;28;20195;-87
2022/12/27 09:35:59;;;;;;;11.80;3.20;;;6.60;99.10;;;;;;5095802;28;20186;-88
2022/12/27 09:38:25;;;;;;;9.50;3.63;;;6.60;98.20;;;;;;5076449;28;20209;-88
2022/12/27 09:40:59;;;;;;;7.93;2.60;;;6.80;97.70;;;;;;5094105;28;20223;-88
2022/12/27 09:44:31;;;;;;;;;;;;;;;;;;;;;
2022/12/27 09:47:37;;;;;;;7.37;2.90;;;6.90;95.60;;;;;;5090442;28;20179;-87
2022/12/27 09:50:29;;;;;;;;;;;;;;;;;;;;;
2022/12/27 09:53:16;;;;;;;9.27;3.20;;;7.00;91.40;;;;;;5094349;28;20602;-88
2022/12/27 09:55:54;;;;;;;8.13;2.80;;;7.10;90.00;;;;;;5093831;28;20646;-88
2022/12/27 09:58:41;;;;;;;11.50;3.00;;;7.20;87.70;;;;;;5077209;28;20191;-87
2022/12/27 10:01:17;;;;;;;6.87;3.43;;;7.20;86.80;;;;;;5092970;28;20215;-87
2022/12/27 10:03:43;;;;;;;7.60;2.80;;;7.20;84.50;;;;;;5076807;28;20278;-87
2022/12/27 10:06:29;;;;;;;13.53;3.73;;;7.20;83.10;;;;;;5077160;28;20205;-87
2022/12/27 10:09:22;;;;;;;5.03;2.70;;;7.30;82.50;;;;;;5093922;28;20179;-87
2022/12/27 10:11:59;;;;;;;8.47;3.53;;;7.30;79.70;;;;;;5114951;28;20256;-87
2022/12/27 10:18:46;;;;;;;9.03;3.00;;;7.30;78.30;;;;;;5062005;28;20184;-87
2022/12/27 10:21:41;;;;;;;9.47;3.37;;;7.70;76.30;;;;;;5039614;28;20216;-87
2022/12/27 10:24:45;;;;;;;15.83;9.47;;;7.50;74.60;;;;;;5036243;28;20211;-87
2022/12/27 10:27:21;;;;;;;8.00;3.83;;;7.40;77.00;;;;;;5035845;28;20188;-88
2022/12/27 10:29:52;;;;;;;14.20;4.33;;;7.50;78.50;;;;;;5076721;28;20225;-88
2022/12/27 10:32:18;;;;;;;9.60;3.60;;;7.60;76.10;;;;;;5093854;28;20195;-87
2022/12/27 10:35:07;;;;;;;;;;;;;;;;;;;;;
2022/12/27 10:37:33;;;;;;;9.77;3.07;;;7.90;73.20;;;;;;5098342;28;20254;-87
2022/12/27 10:40:46;;;;;;;6.10;3.50;;;7.90;69.40;;;;;;5075654;28;20215;-87
2022/12/27 10:43:35;;;;;;;8.70;3.43;;;7.90;68.80;;;;;;5061666;28;20274;-87
2022/12/27 10:46:24;;;;;;;9.00;2.93;;;7.80;70.40;;;;;;5075350;28;20266;-87
2022/12/27 10:48:59;;;;;;;7.43;3.07;;;7.80;71.70;;;;;;5075179;28;20669;-87
2022/12/27 10:51:32;;;;;;;9.83;2.97;;;7.90;71.90;;;;;;5079508;28;20222;-87
2022/12/27 10:54:07;;;;;;;9.03;2.80;;;8.00;69.80;;;;;;5080104;28;20197;-88
2022/12/27 10:56:40;;;;;;;6.50;3.20;;;8.00;68.70;;;;;;5079645;28;20642;-89
2022/12/27 10:59:26;;;;;;;10.90;3.53;;;7.90;68.70;;;;;;5078841;28;20215;-89
2022/12/27 11:02:01;;;;;;;8.93;2.67;;;8.00;71.00;;;;;;5078963;28;20179;-88
2022/12/27 11:04:29;;;;;;;6.33;2.73;;;8.00;70.30;;;;;;5075337;28;20180;-88
2022/12/27 11:07:01;;;;;;;9.97;2.80;;;8.00;70.30;;;;;;5073912;28;20181;-89
2022/12/27 11:09:32;;;;;;;7.03;3.07;;;8.10;69.60;;;;;;5097300;28;20180;-88
2022/12/27 11:12:22;;;;;;;7.63;3.17;;;8.30;66.20;;;;;;5095808;28;20180;-88
2022/12/27 11:15:02;;;;;;;10.73;3.40;;;8.30;62.40;;;;;;5089319;28;20187;-84
2022/12/27 11:17:39;;;;;;;9.63;2.90;;;8.40;61.50;;;;;;5092394;28;20274;-89
2022/12/27 11:20:18;;;;;;;9.67;3.33;;;8.50;59.50;;;;;;5079576;28;20218;-88
2022/12/27 11:22:56;;;;;;;9.57;3.87;;;8.50;57.50;;;;;;5075862;28;20234;-89
2022/12/27 11:25:25;;;;;;;7.13;3.03;;;8.60;54.60;;;;;;5066806;28;20172;-88
2022/12/27 11:28:19;;;;;;;10.17;2.90;;;8.70;52.80;;;;;;5071379;28;20583;-89
2022/12/27 11:31:01;;;;;;;9.27;3.43;;;8.80;52.40;;;;;;5076385;28;20176;-88
2022/12/27 11:33:53;;;;;;;8.90;3.27;;;8.80;49.10;;;;;;5075644;28;20230;-88
2022/12/27 11:36:29;;;;;;;8.97;3.40;;;8.80;45.30;;;;;;5078989;28;20179;-87
2022/12/27 11:38:56;;;;;;;7.37;2.70;;;8.90;41.10;;;;;;5083701;28;20229;-87
2022/12/27 11:41:48;;;;;;;11.63;3.40;;;8.90;40.70;;;;;;5062900;28;20264;-88
2022/12/27 11:44:30;;;;;;;9.63;3.03;;;9.00;38.10;;;;;;5082020;28;20192;-88
2022/12/27 11:47:01;;;;;;;9.83;2.77;;;9.10;36.80;;;;;;5078304;28;20183;-88
2022/12/27 11:49:43;;;;;;;9.30;3.23;;;9.00;32.90;;;;;;5094936;28;20190;-87
2022/12/27 11:52:34;;;;;;;7.07;2.70;;;8.90;38.30;;;;;;5077868;28;20659;-88
2022/12/27 11:55:45;;;;;;;11.57;3.00;;;9.00;39.40;;;;;;5095019;28;20206;-89
2022/12/27 11:58:37;;;;;;;8.83;3.10;;;8.90;35.60;;;;;;5070800;28;20619;-88
2022/12/27 12:01:32;;;;;;;11.07;3.40;;;8.90;38.70;;;;;;5094478;28;20302;-88
2022/12/27 12:04:09;;;;;;;8.00;3.30;;;8.90;38.20;;;;;;5086485;28;20191;-87
2022/12/27 12:07:00;;;;;;;6.63;3.10;;;8.80;41.90;;;;;;5111325;28;20175;-85
2022/12/27 12:09:42;;;;;;;7.10;2.63;;;8.80;43.50;;;;;;5099320;28;20175;-88
2022/12/27 12:12:34;;;;;;;9.97;2.97;;;8.70;46.40;;;;;;5076148;28;20275;-88
2022/12/27 12:15:22;;;;;;;7.17;3.17;;;8.60;48.40;;;;;;5078461;28;20182;-87
2022/12/27 12:18:11;;;;;;;9.83;3.50;;;8.70;49.40;;;;;;5077259;28;20202;-88
2022/12/27 12:20:42;;;;;;;14.50;3.73;;;8.80;49.70;;;;;;5074682;28;20242;-88
2022/12/27 12:23:37;;;;;;;11.37;3.20;;;8.70;51.10;;;;;;5104553;28;20183;-87
2022/12/27 12:26:17;;;;;;;8.03;4.00;;;8.80;51.40;;;;;;5094116;28;20597;-87
2022/12/27 12:28:53;;;;;;;8.07;3.10;;;8.80;50.50;;;;;;5100980;28;20184;-87
2022/12/27 12:31:27;;;;;;;10.87;2.90;;;8.80;49.60;;;;;;5077951;28;20285;-88
2022/12/27 12:34:13;;;;;;;8.00;3.23;;;8.90;48.80;;;;;;5102576;28;20537;-88
2022/12/27 12:37:03;;;;;;;8.40;2.83;;;9.00;49.40;;;;;;5084636;28;20176;-87
2022/12/27 12:40:10;;;;;;;9.90;3.73;;;9.10;46.80;;;;;;5083650;28;20292;-87
2022/12/27 12:42:59;;;;;;;7.37;3.00;;;9.10;42.40;;;;;;5052385;28;20179;-86
2022/12/27 12:45:38;;;;;;;8.77;3.27;;;9.30;43.20;;;;;;5078890;28;20183;-88
2022/12/27 12:48:42;;;;;;;7.23;3.23;;;9.20;42.20;;;;;;5091698;28;20239;-85
2022/12/27 12:51:33;;;;;;;10.40;3.40;;;9.10;42.60;;;;;;5111686;28;20202;-87
2022/12/27 12:54:25;;;;;;;9.80;4.13;;;9.20;44.80;;;;;;5083173;28;20184;-89
2022/12/27 12:57:09;;;;;;;17.50;5.00;;;9.20;42.30;;;;;;5085406;28;20609;-85
2022/12/27 12:59:48;;;;;;;8.90;3.83;;;9.20;44.40;;;;;;5073987;28;20207;-85
2022/12/27 13:02:47;;;;;;;12.40;3.73;;;9.40;42.80;;;;;;5075843;28;20239;-87
2022/12/27 13:05:17;;;;;;;9.73;3.03;;;9.20;40.20;;;;;;5075703;28;20329;-86
2022/12/27 13:08:21;;;;;;;10.00;3.60;;;9.20;41.40;;;;;;5094884;28;20172;-84
2022/12/27 13:11:20;;;;;;;10.67;3.47;;;9.30;40.20;;;;;;5078922;28;20203;-86
2022/12/27 13:14:07;;;;;;;8.73;3.40;;;9.40;40.00;;;;;;5079907;28;20171;-85
2022/12/27 13:16:42;;;;;;;7.83;3.13;;;9.30;39.20;;;;;;5095274;28;20167;-84
2022/12/27 13:19:37;;;;;;;10.53;3.17;;;9.30;37.70;;;;;;5076855;28;20171;-86
2022/12/27 13:22:27;;;;;;;8.47;2.87;;;9.40;38.40;;;;;;5076288;28;20184;-85
2022/12/27 13:25:02;;;;;;;9.47;3.50;;;9.40;37.70;;;;;;5073091;28;20187;-84
2022/12/27 13:27:40;;;;;;;7.70;3.37;;;9.40;36.00;;;;;;5086787;28;20194;-86
2022/12/27 13:30:11;;;;;;;7.00;3.30;;;9.40;33.60;;;;;;5076494;28;20187;-84
2022/12/27 13:33:00;;;;;;;12.67;3.67;;;9.40;35.00;;;;;;5073204;28;20184;-85
2022/12/27 13:35:34;;;;;;;9.20;3.03;;;9.40;35.10;;;;;;5068388;28;20179;-85
2022/12/27 13:38:03;;;;;;;7.13;2.97;;;9.60;31.40;;;;;;5073826;28;20742;-86
2022/12/27 13:40:47;;;;;;;9.03;3.87;;;9.80;30.90;;;;;;5094125;28;20223;-85
2022/12/27 13:43:41;;;;;;;9.73;3.60;;;9.50;31.50;;;;;;5092786;28;20179;-83
2022/12/27 13:46:30;;;;;;;9.17;4.23;;;9.50;33.30;;;;;;5090397;28;20179;-82
2022/12/27 13:49:21;;;;;;;11.33;4.47;;;9.50;34.20;;;;;;5074089;28;20215;-85
2022/12/27 13:52:03;;;;;;;6.47;2.97;;;9.60;32.70;;;;;;5076657;28;20208;-85
2022/12/27 13:54:51;;;;;;;9.53;3.37;;;9.80;31.90;;;;;;5081408;28;20199;-85
2022/12/27 13:57:35;;;;;;;15.33;4.10;;;9.80;28.20;;;;;;5098137;28;20206;-85
2022/12/27 14:00:13;;;;;;;10.47;3.37;;;9.90;26.00;;;;;;5094022;28;20211;-85
2022/12/27 14:02:57;;;;;;;9.97;3.50;;;10.00;22.30;;;;;;5073882;28;20173;-84
2022/12/27 14:05:54;;;;;;;7.07;2.70;;;10.10;18.10;;;;;;5073861;28;20176;-86
2022/12/27 14:08:26;;;;;;;7.53;2.90;;;10.10;17.10;;;;;;5081725;28;20222;-84
2022/12/27 14:10:52;;;;;;;8.60;3.50;;;10.10;13.60;;;;;;5077303;28;20176;-87
2022/12/27 14:13:33;;;;;;;8.33;2.97;;;10.00;15.10;;;;;;5077106;28;20187;-83
2022/12/27 14:16:43;;;;;;;7.20;3.20;;;10.00;17.30;;;;;;5076272;28;20186;-85
2022/12/27 14:19:34;;;;;;;8.03;3.17;;;10.00;16.10;;;;;;5015750;28;20189;-85
2022/12/27 14:22:11;;;;;;;13.87;3.30;;;10.00;15.90;;;;;;5024282;28;20184;-86
2022/12/27 14:24:52;;;;;;;9.40;3.37;;;10.10;14.00;;;;;;5076782;28;20187;-85
2022/12/27 14:27:54;;;;;;;8.00;3.10;;;10.10;12.90;;;;;;5079425;28;20183;-85
2022/12/27 14:30:45;;;;;;;9.03;2.83;;;10.00;13.50;;;;;;5080209;28;20182;-86
2022/12/27 14:33:59;;;;;;;7.77;2.83;;;10.00;11.70;;;;;;5098750;28;20639;-86
2022/12/27 14:37:05;;;;;;;7.37;3.07;;;10.20;11.70;;;;;;5100191;28;20221;-84
2022/12/27 14:40:08;;;;;;;6.27;2.77;;;10.10;11.80;;;;;;5108990;28;20199;-87
2022/12/27 14:42:56;;;;;;;9.33;2.60;;;10.10;10.80;;;;;;5103670;28;20178;-85
2022/12/27 14:45:37;;;;;;;7.90;2.43;;;9.90;9.90;;;;;;5075994;28;20172;-84
2022/12/27 14:48:05;;;;;;;6.37;2.60;;;9.90;14.30;;;;;;5076570;28;20266;-85
2022/12/27 14:51:07;;;;;;;5.87;2.87;;;9.90;14.80;;;;;;5075442;28;20207;-85
2022/12/27 14:53:51;;;;;;;8.27;3.17;;;9.90;15.10;;;;;;5075767;28;20176;-86
2022/12/27 14:56:43;;;;;;;7.60;2.53;;;9.90;14.00;;;;;;5078622;28;20778;-86
2022/12/27 14:59:28;;;;;;;7.67;2.60;;;9.80;13.40;;;;;;5079085;28;20652;-85
2022/12/27 15:02:00;;;;;;;7.00;2.87;;;9.70;14.40;;;;;;5076848;28;20176;-85
2022/12/27 15:04:45;;;;;;;8.30;3.03;;;9.70;16.80;;;;;;5081997;28;20187;-86
2022/12/27 15:08:03;;;;;;;8.87;2.90;;;9.70;16.50;;;;;;5082128;28;20613;-86
2022/12/27 15:10:52;;;;;;;7.37;2.60;;;9.70;16.30;;;;;;5039946;28;20659;-85
2022/12/27 15:13:50;;;;;;;6.67;2.70;;;9.60;17.00;;;;;;5081240;28;20179;-85
2022/12/27 15:16:44;;;;;;;7.03;2.90;;;9.60;18.50;;;;;;5079617;28;20704;-85
2022/12/27 15:19:31;;;;;;;6.90;2.50;;;9.70;14.10;;;;;;5097732;28;20175;-88
2022/12/27 15:22:16;;;;;;;10.43;2.53;;;9.70;12.70;;;;;;5099117;28;20180;-87
2022/12/27 15:25:04;;;;;;;7.20;2.53;;;9.90;10.40;;;;;;5086695;28;20226;-85
2022/12/27 15:27:49;;;;;;;6.57;2.67;;;9.90;9.80;;;;;;5080633;28;20195;-86
2022/12/27 15:30:33;;;;;;;8.30;2.90;;;9.90;9.30;;;;;;5096354;28;20529;-86
2022/12/27 15:33:15;;;;;;;12.20;4.93;;;9.80;11.30;;;;;;5096902;28;20184;-88
2022/12/27 15:35:47;;;;;;;9.40;2.87;;;9.60;14.10;;;;;;5078324;28;20243;-89
2022/12/27 15:38:39;;;;;;;9.20;3.20;;;9.50;18.10;;;;;;5096432;28;20182;-87
2022/12/27 15:41:14;;;;;;;10.43;3.23;;;9.40;20.60;;;;;;5075355;28;20223;-87
2022/12/27 15:44:01;;;;;;;6.47;2.77;;;9.30;23.70;;;;;;5098515;28;20204;-88
2022/12/27 15:46:49;;;;;;;7.73;2.80;;;9.20;26.70;;;;;;5076789;28;20188;-87
2022/12/27 15:49:31;;;;;;;6.40;2.90;;;9.10;30.30;;;;;;5081458;28;20322;-87
2022/12/27 15:52:10;;;;;;;8.50;3.03;;;9.00;33.00;;;;;;5085683;28;20206;-86
2022/12/27 15:54:39;;;;;;;8.20;3.97;;;8.90;37.10;;;;;;5079117;28;20176;-87
2022/12/27 15:57:29;;;;;;;9.43;3.87;;;8.80;40.10;;;;;;5077626;28;20309;-87
2022/12/27 16:00:21;;;;;;;10.53;3.43;;;8.80;43.10;;;;;;5076159;28;20357;-87
2022/12/27 16:02:46;;;;;;;9.60;3.60;;;8.80;44.70;;;;;;5098692;28;20263;-86
2022/12/27 16:05:18;;;;;;;8.33;3.40;;;8.70;47.30;;;;;;5081942;28;20212;-88
2022/12/27 16:07:51;;;;;;;10.60;3.37;;;8.60;50.00;;;;;;5075762;28;20188;-87
2022/12/27 16:10:29;;;;;;;7.73;2.73;;;8.60;51.80;;;;;;5077375;28;20188;-88
2022/12/27 16:13:21;;;;;;;7.97;3.20;;;8.50;52.70;;;;;;5075290;28;20207;-87
2022/12/27 16:15:51;;;;;;;10.03;3.20;;;8.50;53.50;;;;;;5093095;28;20179;-87
2022/12/27 16:18:19;;;;;;;9.10;3.20;;;8.50;54.10;;;;;;5077617;28;20175;-88
2022/12/27 16:21:11;;;;;;;8.27;3.33;;;8.50;55.10;;;;;;5076424;28;20253;-86
2022/12/27 16:23:44;;;;;;;8.97;3.13;;;8.50;56.30;;;;;;5087450;28;20232;-86
2022/12/27 16:26:25;;;;;;;13.63;3.60;;;8.40;56.00;;;;;;5076199;28;20180;-87
2022/12/27 16:29:01;;;;;;;9.10;2.90;;;8.40;57.30;;;;;;5076030;28;20202;-88
2022/12/27 16:31:30;;;;;;;7.17;3.53;;;8.30;58.90;;;;;;5066564;28;20179;-87
2022/12/27 16:34:08;;;;;;;8.37;3.20;;;8.20;59.80;;;;;;5074207;28;20275;-87
2022/12/27 16:36:36;;;;;;;8.70;3.80;;;8.20;60.00;;;;;;5074001;28;20172;-87
2022/12/27 16:39:45;;;;;;;10.77;3.47;;;8.20;60.60;;;;;;5060705;28;20208;-86
2022/12/27 16:42:12;;;;;;;6.17;3.20;;;8.20;61.20;;;;;;5078098;28;20655;-87
2022/12/27 16:44:52;;;;;;;8.90;4.00;;;8.30;62.50;;;;;;5079957;28;20186;-87
2022/12/27 16:47:42;;;;;;;9.43;3.60;;;8.10;63.30;;;;;;5076527;28;20201;-87
2022/12/27 16:50:33;;;;;;;7.93;4.00;;;8.10;63.20;;;;;;5077124;28;20203;-88
2022/12/27 16:52:58;;;;;;;8.23;3.80;;;8.10;64.00;;;;;;5073454;28;20195;-87
2022/12/27 16:56:02;;;;;;;8.00;4.20;;;8.20;63.60;;;;;;5094998;28;20175;-87
2022/12/27 16:58:35;;;;;;;8.33;3.70;;;8.00;63.20;;;;;;5093480;28;20221;-87
2022/12/27 17:01:35;;;;;;;9.03;4.07;;;8.00;64.10;;;;;;5076705;28;20223;-87
2022/12/27 17:04:01;;;;;;;7.70;3.73;;;8.00;65.20;;;;;;5073217;28;20275;-87
2022/12/27 17:06:27;;;;;;;15.60;4.47;;;7.90;65.30;;;;;;5076695;28;20262;-87
2022/12/27 17:09:08;;;;;;;8.17;3.90;;;8.00;65.10;;;;;;5080246;28;20207;-86
2022/12/27 17:11:49;;;;;;;7.47;4.03;;;7.90;65.90;;;;;;5084290;28;20191;-87
2022/12/27 17:14:18;;;;;;;8.53;4.80;;;7.90;64.80;;;;;;5091638;28;20176;-87
2022/12/27 17:16:52;;;;;;;9.40;4.30;;;7.90;64.40;;;;;;5090266;28;20180;-89
2022/12/27 17:19:27;;;;;;;10.50;4.50;;;7.90;63.90;;;;;;5077896;28;20183;-87
2022/12/27 17:22:01;;;;;;;9.23;4.07;;;7.80;62.90;;;;;;5077978;28;20541;-87